Time;durP1;ratioP1;P1;durP2;ratioP2;P2;SDS_P1;SDS_P2;PMS_P1;PMS_P2;Temp;Humidity;BMP_temperature;BMP_pressure;BME280_temperature;BME280_humidity;BME280_pressure;Samples;Min_cycle;Max_cycle;Signal;HPM_P1;HPM_P2
2021/08/07 00:02:04;;;;;;;13.85;3.05;;;;;;;17.65;84.52;100254.16;5072632;28;20139;-56
2021/08/07 00:04:32;;;;;;;10.73;2.15;;;;;;;17.63;84.48;100253.66;5072694;28;20147;-54
2021/08/07 00:07:01;;;;;;;12.60;2.67;;;;;;;17.63;84.43;100253.66;5072642;28;20443;-57
2021/08/07 00:09:29;;;;;;;11.68;2.47;;;;;;;17.61;84.42;100258.03;5072722;28;20131;-55
2021/08/07 00:11:57;;;;;;;11.05;2.05;;;;;;;17.60;84.06;100251.56;5063933;28;20044;-51
2021/08/07 00:14:25;;;;;;;14.73;2.38;;;;;;;17.60;84.21;100242.28;5072477;28;20064;-52
2021/08/07 00:16:54;;;;;;;12.50;2.50;;;;;;;17.58;83.07;100242.66;5072426;28;20119;-53
2021/08/07 00:19:22;;;;;;;9.68;2.05;;;;;;;17.58;82.80;100244.66;5072034;28;20052;-51
2021/08/07 00:21:50;;;;;;;14.73;2.20;;;;;;;17.56;82.87;100234.56;5072708;28;20135;-52
2021/08/07 00:24:19;;;;;;;9.15;2.50;;;;;;;17.55;82.89;100251.84;5072330;28;20127;-54
2021/08/07 00:26:46;;;;;;;15.23;3.53;;;;;;;17.54;82.88;100242.56;5071683;28;20078;-56
2021/08/07 00:29:14;;;;;;;15.80;3.08;;;;;;;17.56;83.24;100253.47;5071796;28;20409;-54
2021/08/07 00:31:43;;;;;;;10.00;2.50;;;;;;;17.52;83.23;100264.66;5072351;28;20123;-56
2021/08/07 00:34:12;;;;;;;13.07;2.03;;;;;;;17.51;82.84;100245.28;5070434;28;20203;-56
2021/08/07 00:36:40;;;;;;;10.95;2.50;;;;;;;17.44;82.19;100240.25;5072115;28;20127;-52
2021/08/07 00:39:08;;;;;;;10.88;2.90;;;;;;;17.44;82.29;100240.25;5070785;28;20094;-52
2021/08/07 00:41:40;;;;;;;13.32;2.50;;;;;;;17.42;81.80;100238.97;5070015;28;20517;-51
2021/08/07 00:44:08;;;;;;;13.38;2.47;;;;;;;17.38;81.59;100238.88;5071960;28;20105;-52
2021/08/07 00:46:41;;;;;;;13.60;2.55;;;;;;;17.34;81.33;100232.31;5070620;28;20343;-54
2021/08/07 00:49:10;;;;;;;14.38;2.67;;;;;;;17.31;81.06;100233.03;5070303;28;20498;-54
2021/08/07 00:51:40;;;;;;;11.02;2.40;;;;;;;17.26;81.04;100241.75;5070770;28;20173;-49
2021/08/07 00:54:13;;;;;;;13.77;3.42;;;;;;;17.25;80.88;100244.94;5070965;28;20044;-51
2021/08/07 00:56:44;;;;;;;13.98;2.20;;;;;;;17.23;81.23;100234.00;5066994;28;20064;-52
2021/08/07 00:59:18;;;;;;;13.63;2.50;;;;;;;17.21;81.78;100231.53;5070301;28;20044;-49
2021/08/07 01:01:53;;;;;;;13.63;2.33;;;;;;;17.21;82.49;100242.00;5068774;28;20051;-54
2021/08/07 01:04:32;;;;;;;19.83;2.75;;;;;;;17.20;83.22;100229.91;5069965;28;20098;-49
2021/08/07 01:07:07;;;;;;;18.25;2.85;;;;;;;17.16;82.48;100226.19;5070447;28;20102;-53
2021/08/07 01:09:47;;;;;;;12.00;2.42;;;;;;;17.14;82.59;100228.53;5069614;28;20480;-51
2021/08/07 01:12:27;;;;;;;17.50;2.60;;;;;;;17.12;82.44;100221.63;5070309;28;20131;-54
2021/08/07 01:14:58;;;;;;;17.50;3.05;;;;;;;17.09;82.73;100231.59;5069380;28;20063;-54
2021/08/07 01:17:32;;;;;;;15.32;2.60;;;;;;;17.07;83.03;100230.31;5070520;28;20059;-55
2021/08/07 01:20:12;;;;;;;16.63;2.58;;;;;;;17.08;83.11;100240.41;5069862;28;20077;-53
2021/08/07 01:23:02;;;;;;;12.60;2.53;;;;;;;17.02;82.80;100225.75;5067666;28;20048;-54
2021/08/07 01:25:44;;;;;;;15.80;3.35;;;;;;;16.97;82.44;100239.28;5070979;28;20091;-51
2021/08/07 01:28:19;;;;;;;14.73;2.30;;;;;;;16.98;82.59;100236.13;5059672;28;20052;-54
2021/08/07 01:30:49;;;;;;;13.45;2.63;;;;;;;16.94;82.66;100223.91;5069194;28;20127;-52
2021/08/07 01:33:18;;;;;;;12.68;2.78;;;;;;;16.94;82.75;100229.56;5071213;28;20139;-51
2021/08/07 01:35:49;;;;;;;10.98;2.20;;;;;;;16.91;82.21;100232.25;5068589;28;20135;-53
2021/08/07 01:38:19;;;;;;;12.32;2.17;;;;;;;16.90;82.35;100233.44;5070036;28;20515;-53
2021/08/07 01:40:57;;;;;;;15.00;3.00;;;;;;;16.90;82.33;100231.44;5069834;28;20553;-53
2021/08/07 01:43:28;;;;;;;12.48;2.42;;;;;;;16.91;82.01;100230.25;5069187;28;20044;-49
2021/08/07 01:45:59;;;;;;;13.20;2.67;;;;;;;16.94;81.93;100229.56;5069665;28;20051;-50
2021/08/07 01:48:37;;;;;;;9.18;2.33;;;;;;;16.92;82.29;100226.25;5067453;28;20048;-52
2021/08/07 01:51:24;;;;;;;13.77;2.88;;;;;;;16.88;82.37;100231.78;5068294;28;20048;-55
2021/08/07 01:54:02;;;;;;;12.27;2.70;;;;;;;16.86;82.33;100222.06;5070012;28;20135;-54
2021/08/07 01:56:37;;;;;;;10.73;2.20;;;;;;;16.84;82.51;100222.41;5069192;28;20468;-55
2021/08/07 01:59:14;;;;;;;12.60;2.22;;;;;;;16.81;82.48;100222.28;5069174;28;20449;-54
2021/08/07 02:01:42;;;;;;;;;;;;;;;16.70;81.79;100226.78;5069418;28;20040;-49
2021/08/07 02:04:20;;;;;;;14.15;2.78;;;;;;;16.68;82.91;100220.69;5069101;28;19978;-51
2021/08/07 02:06:56;;;;;;;17.15;2.40;;;;;;;16.70;82.51;100213.53;5069320;28;20604;-57
2021/08/07 02:09:27;;;;;;;13.73;2.90;;;;;;;16.71;82.00;100220.81;5069267;28;20086;-53
2021/08/07 02:12:00;;;;;;;15.43;2.70;;;;;;;16.71;82.07;100215.19;5068956;28;20544;-51
2021/08/07 02:14:39;;;;;;;11.85;2.67;;;;;;;16.70;82.36;100219.16;5069770;28;20125;-53
2021/08/07 02:17:13;;;;;;;17.27;3.47;;;;;;;16.72;82.85;100221.63;5071896;28;20056;-55
2021/08/07 02:19:43;;;;;;;23.00;2.75;;;;;;;16.73;82.75;100212.81;5072872;28;20049;-51
2021/08/07 02:22:12;;;;;;;11.70;1.90;;;;;;;16.74;82.57;100206.00;5073173;28;20052;-50
2021/08/07 02:24:44;;;;;;;15.60;2.72;;;;;;;16.70;82.53;100224.81;5073682;28;20517;-53
2021/08/07 02:27:22;;;;;;;12.75;2.63;;;;;;;16.67;82.45;100204.97;5072697;28;20072;-51
2021/08/07 02:29:53;;;;;;;12.65;2.20;;;;;;;16.66;82.26;100217.41;5069730;28;20114;-50
2021/08/07 02:32:22;;;;;;;13.40;2.50;;;;;;;16.67;82.16;100211.41;5072473;28;20125;-50
2021/08/07 02:34:56;;;;;;;13.20;2.17;;;;;;;16.72;82.58;100214.00;5074436;28;20044;-50
2021/08/07 02:37:31;;;;;;;10.63;1.98;;;;;;;16.74;82.65;100208.00;5073240;28;20049;-48
2021/08/07 02:39:59;;;;;;;10.23;2.20;;;;;;;16.73;81.15;100214.81;5072451;28;20040;-53
2021/08/07 02:42:31;;;;;;;9.02;1.98;;;;;;;16.69;81.03;100206.25;5072965;28;20056;-50
2021/08/07 02:45:01;;;;;;;12.75;1.95;;;;;;;16.66;80.88;100204.16;5073448;28;20076;-53
2021/08/07 02:47:31;;;;;;;16.33;2.85;;;;;;;16.66;81.17;100203.31;5072621;28;20056;-52
2021/08/07 02:50:04;;;;;;;;;;;;;;;16.53;80.27;100203.34;5073105;28;20060;-55
2021/08/07 02:52:34;;;;;;;11.30;1.95;;;;;;;16.53;81.09;100196.88;5072777;28;20035;-53
2021/08/07 02:55:05;;;;;;;9.63;1.88;;;;;;;16.58;81.00;100201.44;5072051;28;20053;-51
2021/08/07 02:57:34;;;;;;;12.65;2.28;;;;;;;16.61;81.77;100200.72;5072662;28;20056;-54
2021/08/07 03:00:07;;;;;;;8.73;1.90;;;;;;;16.64;81.58;100195.22;5072577;28;20505;-49
2021/08/07 03:02:39;;;;;;;8.82;1.88;;;;;;;16.64;80.84;100194.41;5056653;28;20153;-54
2021/08/07 03:05:08;;;;;;;14.88;2.58;;;;;;;16.67;81.16;100197.34;5071723;28;20094;-52
2021/08/07 03:07:41;;;;;;;16.48;2.50;;;;;;;16.67;81.49;100204.97;5071839;28;20072;-53
2021/08/07 03:10:10;;;;;;;12.57;2.28;;;;;;;16.69;81.77;100194.16;5073911;28;20052;-51
2021/08/07 03:12:39;;;;;;;13.20;2.42;;;;;;;16.68;82.07;100207.44;5072310;28;20058;-52
2021/08/07 03:15:10;;;;;;;12.40;2.22;;;;;;;16.68;82.62;100198.97;5071777;28;20056;-53
2021/08/07 03:17:39;;;;;;;9.23;1.70;;;;;;;16.67;82.71;100197.34;5072365;28;20045;-52
2021/08/07 03:20:09;;;;;;;13.80;2.38;;;;;;;16.63;82.42;100199.22;5072032;28;20106;-52
2021/08/07 03:22:41;;;;;;;10.18;2.30;;;;;;;16.61;82.19;100200.72;5071837;28;20083;-51
2021/08/07 03:25:10;;;;;;;13.23;2.10;;;;;;;16.63;82.48;100206.81;5073647;28;20055;-52
2021/08/07 03:27:40;;;;;;;12.02;1.75;;;;;;;16.64;82.88;100205.66;5070869;28;20048;-52
2021/08/07 03:30:11;;;;;;;11.68;1.90;;;;;;;16.64;82.19;100209.31;5060072;28;20082;-51
2021/08/07 03:32:39;;;;;;;13.60;1.85;;;;;;;16.64;81.76;100212.13;5071925;28;20106;-51
2021/08/07 03:35:09;;;;;;;8.90;1.90;;;;;;;16.63;81.40;100206.81;5072100;28;20164;-51
2021/08/07 03:37:37;;;;;;;17.58;2.25;;;;;;;16.65;81.29;100204.50;5071652;28;20041;-50
2021/08/07 03:40:06;;;;;;;12.60;2.08;;;;;;;16.65;81.25;100205.31;5071729;28;20044;-52
2021/08/07 03:42:43;;;;;;;8.38;1.90;;;;;;;16.67;80.66;100202.16;5060585;28;20090;-51
2021/08/07 03:45:17;;;;;;;11.38;1.65;;;;;;;16.68;80.24;100203.78;5069926;28;20595;-56
2021/08/07 03:47:50;;;;;;;15.98;1.95;;;;;;;16.70;80.46;100209.91;5071977;28;20105;-50
2021/08/07 03:50:24;;;;;;;11.48;2.30;;;;;;;16.71;80.34;100198.25;5067181;28;20481;-49
2021/08/07 03:52:52;;;;;;;8.98;1.63;;;;;;;16.74;80.73;100206.00;5071251;28;20044;-49
2021/08/07 03:55:20;;;;;;;14.75;2.55;;;;;;;16.75;80.74;100204.84;5071374;28;20238;-52
2021/08/07 03:57:51;;;;;;;13.10;2.53;;;;;;;16.76;80.69;100195.22;5071054;28;20131;-53
2021/08/07 04:00:31;;;;;;;14.02;2.03;;;;;;;16.77;81.31;100194.03;5071434;28;20066;-55
2021/08/07 04:03:00;;;;;;;13.60;2.15;;;;;;;16.76;81.92;100197.22;5068751;28;20095;-54
2021/08/07 04:05:28;;;;;;;10.60;2.20;;;;;;;16.75;82.13;100199.19;5070741;28;20090;-52
2021/08/07 04:08:01;;;;;;;16.85;2.63;;;;;;;16.75;83.68;100204.84;5069691;28;20048;-59
2021/08/07 04:10:30;;;;;;;17.17;2.53;;;;;;;16.61;86.17;100203.53;5071664;28;20105;-57
2021/08/07 04:12:58;;;;;;;12.30;2.05;;;;;;;16.40;87.26;100195.25;5071240;28;20057;-59
2021/08/07 04:15:26;;;;;;;14.80;2.55;;;;;;;16.20;89.28;100199.84;5072526;28;20056;-57
2021/08/07 04:17:55;;;;;;;17.45;2.95;;;;;;;16.06;91.28;100202.19;5070166;28;20163;-54
2021/08/07 04:20:24;;;;;;;19.02;3.03;;;;;;;15.78;92.16;100202.91;5072173;28;20040;-57
2021/08/07 04:22:53;;;;;;;13.00;2.45;;;;;;;15.60;93.45;100204.25;5071285;28;20051;-58
2021/08/07 04:25:22;;;;;;;15.15;2.72;;;;;;;15.48;94.69;100193.81;5070764;28;20052;-54
2021/08/07 04:27:50;;;;;;;12.70;2.80;;;;;;;15.41;94.92;100195.53;5072538;28;20066;-56
2021/08/07 04:30:18;;;;;;;15.60;2.60;;;;;;;15.33;95.45;100202.91;5071905;28;20052;-57
2021/08/07 04:32:49;;;;;;;14.57;2.47;;;;;;;15.31;96.01;100193.19;5070464;28;20511;-57
2021/08/07 04:35:19;;;;;;;13.40;2.80;;;;;;;15.32;96.79;100198.44;5070681;28;20052;-55
2021/08/07 04:37:49;;;;;;;8.30;2.00;;;;;;;15.33;97.04;100197.28;5070818;28;20055;-53
2021/08/07 04:40:26;;;;;;;16.30;2.42;;;;;;;15.33;97.39;100194.47;5070154;28;20072;-57
2021/08/07 04:42:58;;;;;;;11.73;2.20;;;;;;;15.36;97.87;100196.59;5070699;28;20048;-56
2021/08/07 04:45:27;;;;;;;14.63;2.72;;;;;;;15.42;97.96;100198.00;5070486;28;20405;-55
2021/08/07 04:47:57;;;;;;;13.82;2.88;;;;;;;15.47;98.09;100197.78;5071659;28;20121;-55
2021/08/07 04:50:33;;;;;;;15.25;2.65;;;;;;;15.55;98.19;100201.66;5070587;28;20465;-55
2021/08/07 04:53:06;;;;;;;18.05;2.15;;;;;;;15.60;98.19;100204.25;5071364;28;20155;-57
2021/08/07 04:55:37;;;;;;;12.40;2.10;;;;;;;15.63;98.03;100203.56;5070671;28;20127;-56
2021/08/07 04:58:07;;;;;;;11.00;2.60;;;;;;;15.64;97.83;100201.59;5059501;28;20042;-57
2021/08/07 05:00:38;;;;;;;9.30;2.33;;;;;;;15.61;97.52;100205.09;5070137;28;20058;-59
2021/08/07 05:03:06;;;;;;;9.80;2.50;;;;;;;15.56;97.79;100200.53;5071547;28;20055;-54
2021/08/07 05:05:39;;;;;;;11.20;2.38;;;;;;;15.52;97.83;100202.38;5070577;28;20052;-52
2021/08/07 05:08:07;;;;;;;12.60;2.33;;;;;;;15.49;98.29;100206.69;5069487;28;20056;-53
2021/08/07 05:10:37;;;;;;;9.63;2.33;;;;;;;15.46;98.49;100203.75;5060525;28;20485;-57
2021/08/07 05:13:05;;;;;;;5.15;1.83;;;;;;;15.46;98.66;100206.56;5070144;28;20056;-58
2021/08/07 05:15:33;;;;;;;10.90;2.22;;;;;;;15.46;99.12;100198.94;5071108;28;20112;-57
2021/08/07 05:18:03;;;;;;;7.10;1.98;;;;;;;15.47;99.25;100199.75;5069938;28;20040;-52
2021/08/07 05:20:33;;;;;;;5.95;1.65;;;;;;;15.46;99.16;100206.56;5067091;28;20060;-55
2021/08/07 05:23:02;;;;;;;8.05;2.10;;;;;;;15.47;99.51;100208.19;5069545;28;20162;-54
2021/08/07 05:25:32;;;;;;;9.48;2.10;;;;;;;15.48;99.36;100204.22;5070463;28;20040;-54
2021/08/07 05:27:59;;;;;;;8.95;2.28;;;;;;;15.42;99.56;100209.25;5069590;28;20113;-55
2021/08/07 05:30:28;;;;;;;10.07;2.40;;;;;;;15.37;99.73;100200.22;5068416;28;20060;-56
2021/08/07 05:33:00;;;;;;;11.88;2.97;;;;;;;15.37;99.82;100211.47;5070119;28;20044;-53
2021/08/07 05:35:28;;;;;;;10.05;2.30;;;;;;;15.39;100.00;100207.13;5070410;28;20082;-56
2021/08/07 05:37:56;;;;;;;11.40;2.45;;;;;;;15.46;99.99;100209.38;5069970;28;20080;-52
2021/08/07 05:40:25;;;;;;;10.65;2.10;;;;;;;15.48;99.87;100204.22;5069860;28;20402;-51
2021/08/07 05:42:55;;;;;;;11.10;2.67;;;;;;;15.47;100.00;100211.00;5069062;28;20040;-51
2021/08/07 05:45:25;;;;;;;7.93;2.28;;;;;;;15.50;100.00;100216.78;5069563;28;20560;-53
2021/08/07 05:47:54;;;;;;;9.35;2.50;;;;;;;15.57;100.00;100206.97;5069583;28;20055;-57
2021/08/07 05:50:22;;;;;;;12.02;2.55;;;;;;;15.58;100.00;100212.25;5068400;28;20050;-55
2021/08/07 05:52:50;;;;;;;7.32;2.42;;;;;;;15.65;100.00;100211.66;5069716;28;20102;-55
2021/08/07 05:55:20;;;;;;;8.80;2.33;;;;;;;15.71;100.00;100216.72;5070998;28;20418;-53
2021/08/07 05:57:49;;;;;;;8.15;2.40;;;;;;;15.80;100.00;100210.97;5068933;28;20048;-55
2021/08/07 06:00:19;;;;;;;9.20;2.40;;;;;;;15.88;100.00;100198.81;5069441;28;20036;-57
2021/08/07 06:02:53;;;;;;;10.93;2.45;;;;;;;15.94;100.00;100205.84;5067392;28;20097;-57
2021/08/07 06:05:28;;;;;;;6.53;1.98;;;;;;;16.01;99.91;100205.25;5067514;28;20045;-54
2021/08/07 06:07:57;;;;;;;11.82;2.60;;;;;;;16.10;99.52;100208.78;5067597;28;20056;-55
2021/08/07 06:10:25;;;;;;;6.07;2.13;;;;;;;16.23;99.46;100203.94;5068244;28;20040;-57
2021/08/07 06:12:56;;;;;;;8.43;2.17;;;;;;;16.34;99.30;100213.56;5067352;28;20060;-57
2021/08/07 06:15:25;;;;;;;6.03;2.30;;;;;;;16.41;99.02;100211.78;5067705;28;20465;-61
2021/08/07 06:17:53;;;;;;;10.70;2.90;;;;;;;16.41;98.43;100203.34;5068792;28;20044;-54
2021/08/07 06:20:23;;;;;;;6.72;2.25;;;;;;;16.42;98.26;100204.97;5066994;28;20051;-56
2021/08/07 06:22:52;;;;;;;8.23;2.23;;;;;;;16.40;98.14;100203.69;5067716;28;20055;-56
2021/08/07 06:25:21;;;;;;;8.90;2.05;;;;;;;16.39;98.23;100202.88;5066892;28;20045;-57
2021/08/07 06:27:53;;;;;;;7.05;1.67;;;;;;;16.44;98.37;100204.63;5067706;28;20072;-52
2021/08/07 06:30:24;;;;;;;5.57;1.80;;;;;;;16.49;98.28;100210.84;5067241;28;20106;-58
2021/08/07 06:32:53;;;;;;;9.90;2.30;;;;;;;16.46;98.01;100205.91;5067396;28;20049;-61
2021/08/07 06:35:21;;;;;;;7.75;2.10;;;;;;;16.40;98.01;100215.78;5067723;28;20481;-55
2021/08/07 06:37:50;;;;;;;6.10;2.10;;;;;;;16.36;98.25;100209.22;5066457;28;20127;-53
2021/08/07 06:40:19;;;;;;;7.50;2.30;;;;;;;16.30;98.14;100221.91;5068291;28;20436;-57
2021/08/07 06:42:47;;;;;;;12.95;4.03;;;;;;;16.22;98.43;100247.34;5066864;28;20056;-49
2021/08/07 06:45:35;;;;;;;9.98;3.40;;;;;;;15.95;99.72;100238.44;5067326;28;20045;-53
2021/08/07 06:48:06;;;;;;;8.70;3.40;;;;;;;15.77;100.00;100237.03;5066670;28;20075;-56
2021/08/07 06:50:36;;;;;;;10.40;2.45;;;;;;;15.61;100.00;100219.97;5067573;28;20043;-57
2021/08/07 06:53:04;;;;;;;11.82;3.20;;;;;;;15.54;100.00;100227.31;5066456;28;20041;-53
2021/08/07 06:55:32;;;;;;;8.32;2.25;;;;;;;15.47;100.00;100227.88;5067402;28;20048;-55
2021/08/07 06:58:01;;;;;;;9.05;2.25;;;;;;;15.45;100.00;100228.22;5067383;28;20052;-50
2021/08/07 07:00:29;;;;;;;9.18;2.60;;;;;;;15.44;100.00;100229.41;5066759;28;20083;-51
2021/08/07 07:02:59;;;;;;;10.45;2.53;;;;;;;15.41;100.00;100221.66;5069423;28;20452;-56
2021/08/07 07:05:31;;;;;;;8.85;2.67;;;;;;;15.35;100.00;100230.69;5070851;28;20435;-53
2021/08/07 07:08:01;;;;;;;5.68;2.10;;;;;;;15.25;100.00;100231.91;5069466;28;20472;-50
2021/08/07 07:10:30;;;;;;;5.88;2.08;;;;;;;15.16;100.00;100228.38;5070890;28;20052;-53
2021/08/07 07:12:59;;;;;;;5.50;1.77;;;;;;;15.07;100.00;100234.06;5070494;28;20090;-58
2021/08/07 07:15:29;;;;;;;6.03;2.03;;;;;;;14.99;100.00;100231.31;5070215;28;20056;-59
2021/08/07 07:17:59;;;;;;;8.52;2.90;;;;;;;14.95;100.00;100228.41;5070806;28;20051;-54
2021/08/07 07:20:27;;;;;;;8.52;2.60;;;;;;;14.96;100.00;100229.22;5070564;28;20474;-52
2021/08/07 07:22:55;;;;;;;10.15;2.72;;;;;;;14.98;100.00;100224.91;5070538;28;20056;-56
2021/08/07 07:25:24;;;;;;;9.00;2.88;;;;;;;15.02;100.00;100225.84;5070780;28;20049;-53
2021/08/07 07:27:52;;;;;;;10.60;3.03;;;;;;;15.07;100.00;100241.69;5071416;28;20040;-50
2021/08/07 07:30:21;;;;;;;9.07;2.67;;;;;;;15.09;100.00;100214.06;5070432;28;20060;-53
2021/08/07 07:32:51;;;;;;;7.30;2.20;;;;;;;15.16;100.00;100211.53;5068838;28;20410;-52
2021/08/07 07:35:20;;;;;;;5.35;1.98;;;;;;;15.30;100.00;100228.06;5071413;28;20072;-49
2021/08/07 07:37:47;;;;;;;8.38;2.92;;;;;;;15.50;100.00;100219.59;5070301;28;20091;-61
2021/08/07 07:40:17;;;;;;;8.93;3.42;;;;;;;15.76;100.00;100212.88;5070382;28;20040;-60
2021/08/07 07:42:46;;;;;;;9.27;3.17;;;;;;;16.01;100.00;100220.13;5069723;28;20069;-58
2021/08/07 07:45:14;;;;;;;7.93;3.20;;;;;;;16.25;100.00;100219.31;5070494;28;20052;-55
2021/08/07 07:47:44;;;;;;;10.98;3.63;;;;;;;16.47;100.00;100212.38;5070179;28;20053;-50
2021/08/07 07:50:14;;;;;;;12.20;3.60;;;;;;;16.67;100.00;100216.22;5069247;28;20040;-56
2021/08/07 07:52:49;;;;;;;9.23;3.08;;;;;;;16.76;100.00;100214.94;5069768;28;20060;-49
2021/08/07 07:55:19;;;;;;;8.30;3.05;;;;;;;16.84;100.00;100215.94;5069352;28;20094;-57
2021/08/07 07:57:47;;;;;;;8.45;2.92;;;;;;;16.87;100.00;100215.25;5069316;28;20051;-53
2021/08/07 08:00:17;;;;;;;10.55;3.17;;;;;;;16.88;100.00;100214.06;5069940;28;20132;-55
2021/08/07 08:02:52;;;;;;;6.97;3.47;;;;;;;16.88;100.00;100219.69;5069635;28;20049;-52
2021/08/07 08:05:29;;;;;;;7.72;2.97;;;;;;;16.87;100.00;100201.97;5069791;28;20049;-54
2021/08/07 08:08:00;;;;;;;7.90;3.22;;;;;;;16.92;100.00;100220.63;5069692;28;20051;-52
2021/08/07 08:10:29;;;;;;;11.98;4.07;;;;;;;16.91;100.00;100224.63;5070593;28;20044;-52
2021/08/07 08:12:57;;;;;;;6.80;3.25;;;;;;;16.96;100.00;100212.28;5069191;28;20185;-58
2021/08/07 08:15:25;;;;;;;8.10;3.70;;;;;;;17.07;100.00;100210.59;5070504;28;20106;-57
2021/08/07 08:17:53;;;;;;;7.20;3.33;;;;;;;17.18;100.00;100211.72;5068982;28;20493;-53
2021/08/07 08:20:21;;;;;;;7.88;4.05;;;;;;;17.37;100.00;100209.03;5069532;28;20075;-54
2021/08/07 08:22:49;;;;;;;8.90;3.38;;;;;;;17.55;100.00;100212.34;5069542;28;20052;-57
2021/08/07 08:25:19;;;;;;;9.00;3.30;;;;;;;17.64;99.83;100204.53;5068810;28;20358;-58
2021/08/07 08:27:47;;;;;;;7.53;3.42;;;;;;;17.68;99.21;100219.56;5069190;28;20417;-59
2021/08/07 08:30:16;;;;;;;10.73;4.05;;;;;;;17.66;98.76;100218.28;5070036;28;20090;-60
2021/08/07 08:32:45;;;;;;;10.27;3.67;;;;;;;17.61;98.62;100218.53;5068720;28;20037;-58
2021/08/07 08:35:14;;;;;;;9.10;3.40;;;;;;;17.66;98.67;100218.28;5068910;28;20837;-61
2021/08/07 08:37:43;;;;;;;7.85;2.92;;;;;;;17.78;97.61;100213.41;5069343;28;20049;-58
2021/08/07 08:40:11;;;;;;;8.65;2.90;;;;;;;17.91;96.42;100211.31;5068238;28;20106;-58
2021/08/07 08:42:42;;;;;;;7.90;3.03;;;;;;;18.01;95.51;100210.75;5066930;28;20040;-59
2021/08/07 08:45:11;;;;;;;8.60;2.70;;;;;;;18.00;94.63;100211.09;5069995;28;20044;-58
2021/08/07 08:47:42;;;;;;;6.70;2.92;;;;;;;18.02;94.35;100218.03;5069403;28;20067;-58
2021/08/07 08:50:11;;;;;;;7.35;2.80;;;;;;;18.06;93.87;100216.13;5069901;28;20546;-59
2021/08/07 08:52:42;;;;;;;9.07;2.90;;;;;;;18.02;93.71;100211.56;5068415;28;20054;-57
2021/08/07 08:55:12;;;;;;;7.07;2.30;;;;;;;17.99;94.01;100212.28;5069699;28;20387;-60
2021/08/07 08:57:42;;;;;;;5.45;2.40;;;;;;;18.01;93.67;100213.56;5069970;28;20093;-58
2021/08/07 09:00:13;;;;;;;6.50;2.22;;;;;;;18.08;93.33;100210.94;5068214;28;20076;-57
2021/08/07 09:02:43;;;;;;;6.35;2.50;;;;;;;18.22;92.07;100207.63;5069917;28;20052;-57
2021/08/07 09:05:14;;;;;;;5.50;2.37;;;;;;;18.32;91.67;100209.91;5068429;28;20048;-55
2021/08/07 09:07:44;;;;;;;5.93;2.47;;;;;;;18.37;90.09;100194.69;5067085;28;21266;-56
2021/08/07 09:10:16;;;;;;;5.97;2.47;;;;;;;18.52;89.51;100194.63;5068150;28;20044;-56
2021/08/07 09:12:50;;;;;;;4.78;2.30;;;;;;;18.54;89.48;100192.25;5068331;28;20413;-56
2021/08/07 09:15:30;;;;;;;9.13;2.65;;;;;;;18.48;88.13;100190.06;5068318;28;20114;-54
2021/08/07 09:18:19;;;;;;;5.20;2.42;;;;;;;18.36;87.96;100187.38;5069402;28;20444;-60
2021/08/07 09:20:58;;;;;;;6.55;2.60;;;;;;;18.25;88.61;100185.13;5066688;28;20051;-60
2021/08/07 09:23:33;;;;;;;6.68;2.88;;;;;;;18.20;88.69;100182.56;5068521;28;20071;-55
2021/08/07 09:26:19;;;;;;;7.05;2.78;;;;;;;18.12;88.58;100183.59;5067011;28;20048;-63
2021/08/07 09:28:53;;;;;;;5.63;3.28;;;;;;;18.14;89.20;100186.88;5065183;28;20063;-55
2021/08/07 09:31:25;;;;;;;7.97;2.80;;;;;;;18.21;88.59;100180.56;5068201;28;20048;-66
2021/08/07 09:34:16;;;;;;;8.60;2.88;;;;;;;18.51;88.92;100173.22;5068484;28;20058;-50
2021/08/07 09:36:49;;;;;;;5.95;2.78;;;;;;;19.18;88.23;100173.03;5067715;28;20481;-52
2021/08/07 09:39:34;;;;;;;;;;;;;;;19.60;80.67;100171.03;5068541;28;20068;-59
2021/08/07 09:42:04;;;;;;;4.55;1.67;;;;;;;19.89;81.29;100168.69;5066794;28;19924;-54
2021/08/07 09:44:38;;;;;;;4.68;1.75;;;;;;;19.97;79.35;100173.28;5067480;28;20113;-55
2021/08/07 09:47:08;;;;;;;4.38;1.58;;;;;;;20.05;78.18;100172.19;5068899;28;20248;-56
2021/08/07 09:49:39;;;;;;;5.35;1.40;;;;;;;20.05;77.77;100165.72;5067849;28;20118;-52
2021/08/07 09:52:08;;;;;;;6.35;1.30;;;;;;;20.26;76.69;100172.53;5066481;28;20127;-52
2021/08/07 09:54:37;;;;;;;4.63;1.40;;;;;;;20.60;75.52;100173.47;5068392;28;20508;-53
2021/08/07 09:57:06;;;;;;;5.68;1.52;;;;;;;21.03;75.41;100165.50;5064339;28;20049;-57
2021/08/07 09:59:47;;;;;;;4.63;1.25;;;;;;;20.91;70.79;100160.91;5067911;28;20040;-50
2021/08/07 10:02:22;;;;;;;7.15;1.58;;;;;;;20.61;72.74;100158.09;5049811;28;20132;-54
2021/08/07 10:04:53;;;;;;;5.18;1.48;;;;;;;20.24;74.14;100157.09;5067775;28;20045;-51
2021/08/07 10:07:21;;;;;;;5.93;1.30;;;;;;;19.97;74.97;100155.47;5067899;28;20053;-51
2021/08/07 10:09:56;;;;;;;3.50;1.30;;;;;;;19.71;75.72;100161.91;5067182;28;20049;-55
2021/08/07 10:12:25;;;;;;;4.15;1.50;;;;;;;19.53;76.36;100165.25;5067537;28;20128;-54
2021/08/07 10:15:14;;;;;;;4.40;1.13;;;;;;;19.18;76.44;100158.91;5068603;28;20070;-50
2021/08/07 10:17:43;;;;;;;5.70;1.58;;;;;;;19.03;77.97;100165.44;5067350;28;20472;-55
2021/08/07 10:20:13;;;;;;;6.93;1.63;;;;;;;18.79;80.50;100172.22;5068709;28;20064;-49
2021/08/07 10:22:42;;;;;;;4.68;1.55;;;;;;;18.68;83.13;100160.69;5068665;28;20051;-54
2021/08/07 10:25:13;;;;;;;5.13;1.75;;;;;;;18.62;85.13;100169.81;5067173;28;20045;-50
2021/08/07 10:27:43;;;;;;;4.07;1.73;;;;;;;18.59;86.78;100171.38;5067893;28;20491;-53
2021/08/07 10:30:12;;;;;;;5.68;2.13;;;;;;;18.50;87.39;100182.88;5068623;28;20048;-53
2021/08/07 10:32:46;;;;;;;3.75;1.67;;;;;;;18.21;87.55;100184.22;5064733;28;20165;-45
2021/08/07 10:35:18;;;;;;;7.18;1.30;;;;;;;17.75;87.78;100187.91;5067482;28;20083;-45
2021/08/07 10:37:47;;;;;;;3.45;0.80;;;;;;;17.42;88.35;100174.91;5069244;28;20048;-50
2021/08/07 10:40:15;;;;;;;3.58;1.02;;;;;;;17.18;89.17;100173.06;5071454;28;20064;-42
2021/08/07 10:42:46;;;;;;;3.40;1.15;;;;;;;17.09;90.57;100154.66;5071305;28;20087;-53
2021/08/07 10:45:16;;;;;;;6.28;1.35;;;;;;;17.17;91.92;100151.69;5070717;28;20049;-53
2021/08/07 10:47:46;;;;;;;4.53;1.95;;;;;;;17.32;92.92;100150.06;5072639;28;20052;-54
2021/08/07 10:50:36;;;;;;;4.88;1.70;;;;;;;17.42;92.78;100151.53;5071322;28;20040;-52
2021/08/07 10:53:35;;;;;;;3.65;1.30;;;;;;;17.50;92.93;100140.06;5068754;28;20044;-50
2021/08/07 10:56:03;;;;;;;5.32;1.65;;;;;;;17.64;93.96;100147.25;5071792;28;20072;-55
2021/08/07 10:58:36;;;;;;;4.07;1.48;;;;;;;17.77;93.66;100146.03;5071470;28;20072;-54
2021/08/07 11:01:30;;;;;;;4.82;1.92;;;;;;;17.90;93.89;100133.44;5072139;28;20076;-56
2021/08/07 11:04:16;;;;;;;6.90;1.88;;;;;;;18.12;94.71;100138.41;5072043;28;20428;-47
2021/08/07 11:07:05;;;;;;;9.05;2.42;;;;;;;18.34;94.44;100134.09;5070431;28;20061;-50
2021/08/07 11:09:35;;;;;;;5.47;2.35;;;;;;;18.45;93.68;100126.66;5072416;28;20048;-49
2021/08/07 11:12:21;;;;;;;4.18;1.92;;;;;;;18.49;93.32;100132.38;5071741;28;20044;-57
2021/08/07 11:14:58;;;;;;;3.92;1.70;;;;;;;18.39;92.47;100135.78;5070026;28;20041;-52
2021/08/07 11:17:35;;;;;;;4.07;1.45;;;;;;;18.24;91.87;100143.94;5071026;28;20447;-49
2021/08/07 11:20:10;;;;;;;4.75;1.80;;;;;;;18.12;91.71;100138.41;5071277;28;20467;-59
2021/08/07 11:23:09;;;;;;;5.57;1.58;;;;;;;18.21;92.42;100141.84;5069531;28;20105;-57
2021/08/07 11:26:05;;;;;;;4.25;1.75;;;;;;;18.59;93.39;100134.63;5068812;28;20696;-54
2021/08/07 11:28:54;;;;;;;7.43;2.83;;;;;;;19.04;93.98;100127.50;5058327;28;20139;-56
2021/08/07 11:31:23;;;;;;;5.38;3.42;;;;;;;19.52;91.25;100126.00;5071646;28;20606;-55
2021/08/07 11:34:25;;;;;;;5.15;2.88;;;;;;;19.87;88.73;100114.47;5071183;28;20115;-60
2021/08/07 11:37:19;;;;;;;5.88;3.40;;;;;;;20.24;87.79;100111.78;5070056;28;20131;-56
2021/08/07 11:40:08;;;;;;;7.07;3.58;;;;;;;20.53;86.18;100111.00;5071007;28;20171;-59
2021/08/07 11:42:38;;;;;;;4.38;2.17;;;;;;;20.86;84.29;100103.72;5071249;28;20043;-58
2021/08/07 11:45:07;;;;;;;5.45;2.33;;;;;;;20.82;82.07;100102.84;5071435;28;20046;-55